sensor_id;sensor_type;location;lat;lon;timestamp;temperature;humidity
6988;DHT22;3534;49.960;8.018;2023-09-18T00:00:04;22.50;99.90
6988;DHT22;3534;49.960;8.018;2023-09-18T00:02:34;22.50;99.90
6988;DHT22;3534;49.960;8.018;2023-09-18T00:05:01;22.40;99.90
6988;DHT22;3534;49.960;8.018;2023-09-18T00:07:28;22.40;99.90
6988;DHT22;3534;49.960;8.018;2023-09-18T00:09:54;22.40;99.90
6988;DHT22;3534;49.960;8.018;2023-09-18T00:12:22;22.40;99.90
6988;DHT22;3534;49.960;8.018;2023-09-18T00:14:49;22.40;99.90
6988;DHT22;3534;49.960;8.018;2023-09-18T00:17:17;22.40;99.90
6988;DHT22;3534;49.960;8.018;2023-09-18T00:19:44;22.30;99.90
6988;DHT22;3534;49.960;8.018;2023-09-18T00:22:11;22.40;99.90
6988;DHT22;3534;49.960;8.018;2023-09-18T00:24:38;22.30;99.90
6988;DHT22;3534;49.960;8.018;2023-09-18T00:27:05;22.30;99.90
6988;DHT22;3534;49.960;8.018;2023-09-18T00:29:33;22.30;99.90
6988;DHT22;3534;49.960;8.018;2023-09-18T00:31:59;22.30;99.90
6988;DHT22;3534;49.960;8.018;2023-09-18T00:34:26;22.30;99.90
6988;DHT22;3534;49.960;8.018;2023-09-18T00:36:52;22.30;99.90
6988;DHT22;3534;49.960;8.018;2023-09-18T00:39:19;22.30;99.90
6988;DHT22;3534;49.960;8.018;2023-09-18T00:41:46;22.20;99.90
6988;DHT22;3534;49.960;8.018;2023-09-18T00:44:14;22.20;99.90
6988;DHT22;3534;49.960;8.018;2023-09-18T00:46:43;22.20;99.90
6988;DHT22;3534;49.960;8.018;2023-09-18T00:49:10;22.20;99.90
6988;DHT22;3534;49.960;8.018;2023-09-18T00:51:38;22.20;99.90
6988;DHT22;3534;49.960;8.018;2023-09-18T00:54:05;22.10;99.90
6988;DHT22;3534;49.960;8.018;2023-09-18T00:56:32;22.10;99.90
6988;DHT22;3534;49.960;8.018;2023-09-18T00:58:59;22.10;99.90
6988;DHT22;3534;49.960;8.018;2023-09-18T01:01:27;22.10;99.90
6988;DHT22;3534;49.960;8.018;2023-09-18T01:03:57;22.10;99.90
6988;DHT22;3534;49.960;8.018;2023-09-18T01:06:24;22.10;99.90
6988;DHT22;3534;49.960;8.018;2023-09-18T01:08:56;22.10;99.90
6988;DHT22;3534;49.960;8.018;2023-09-18T01:11:38;22.00;99.90
6988;DHT22;3534;49.960;8.018;2023-09-18T01:14:19;22.00;99.90
6988;DHT22;3534;49.960;8.018;2023-09-18T01:16:51;22.00;99.90
6988;DHT22;3534;49.960;8.018;2023-09-18T01:19:34;22.00;99.90
6988;DHT22;3534;49.960;8.018;2023-09-18T01:22:01;21.90;99.90
6988;DHT22;3534;49.960;8.018;2023-09-18T01:24:29;21.90;99.90
6988;DHT22;3534;49.960;8.018;2023-09-18T01:26:56;21.90;99.90
6988;DHT22;3534;49.960;8.018;2023-09-18T01:29:23;21.90;99.90
6988;DHT22;3534;49.960;8.018;2023-09-18T01:31:49;21.90;99.90
6988;DHT22;3534;49.960;8.018;2023-09-18T01:34:18;21.90;99.90
6988;DHT22;3534;49.960;8.018;2023-09-18T01:36:46;21.90;99.90
6988;DHT22;3534;49.960;8.018;2023-09-18T01:39:14;21.90;99.90
6988;DHT22;3534;49.960;8.018;2023-09-18T01:41:43;21.90;99.90
6988;DHT22;3534;49.960;8.018;2023-09-18T01:44:10;21.90;99.90
6988;DHT22;3534;49.960;8.018;2023-09-18T01:46:37;21.90;99.90
6988;DHT22;3534;49.960;8.018;2023-09-18T01:49:04;21.90;99.90
6988;DHT22;3534;49.960;8.018;2023-09-18T01:51:31;21.80;99.90
6988;DHT22;3534;49.960;8.018;2023-09-18T01:53:57;21.80;99.90
6988;DHT22;3534;49.960;8.018;2023-09-18T01:56:24;21.80;99.90
6988;DHT22;3534;49.960;8.018;2023-09-18T01:58:52;21.80;99.90
6988;DHT22;3534;49.960;8.018;2023-09-18T02:01:19;21.80;99.90
6988;DHT22;3534;49.960;8.018;2023-09-18T02:03:45;21.80;99.90
6988;DHT22;3534;49.960;8.018;2023-09-18T02:06:12;21.70;99.90
6988;DHT22;3534;49.960;8.018;2023-09-18T02:08:39;21.70;99.90
6988;DHT22;3534;49.960;8.018;2023-09-18T02:11:06;21.70;99.90
6988;DHT22;3534;49.960;8.018;2023-09-18T02:13:32;21.70;99.90
6988;DHT22;3534;49.960;8.018;2023-09-18T02:16:00;21.70;99.90
6988;DHT22;3534;49.960;8.018;2023-09-18T02:18:28;21.70;99.90
6988;DHT22;3534;49.960;8.018;2023-09-18T02:20:55;21.70;99.90
6988;DHT22;3534;49.960;8.018;2023-09-18T02:23:22;21.70;99.90
6988;DHT22;3534;49.960;8.018;2023-09-18T02:25:55;21.70;99.90
6988;DHT22;3534;49.960;8.018;2023-09-18T02:28:22;21.70;99.90
6988;DHT22;3534;49.960;8.018;2023-09-18T02:30:48;21.70;99.90
6988;DHT22;3534;49.960;8.018;2023-09-18T02:33:17;21.80;99.90
6988;DHT22;3534;49.960;8.018;2023-09-18T02:35:43;21.70;99.90
6988;DHT22;3534;49.960;8.018;2023-09-18T02:38:10;21.70;99.90
6988;DHT22;3534;49.960;8.018;2023-09-18T02:40:36;21.70;99.90
6988;DHT22;3534;49.960;8.018;2023-09-18T02:43:03;21.70;99.90
6988;DHT22;3534;49.960;8.018;2023-09-18T02:45:30;21.70;99.90
6988;DHT22;3534;49.960;8.018;2023-09-18T02:47:56;21.60;99.90
6988;DHT22;3534;49.960;8.018;2023-09-18T02:50:24;21.60;99.90
6988;DHT22;3534;49.960;8.018;2023-09-18T02:52:51;21.60;99.90
6988;DHT22;3534;49.960;8.018;2023-09-18T02:55:18;21.60;99.90
6988;DHT22;3534;49.960;8.018;2023-09-18T02:57:45;21.60;99.90
6988;DHT22;3534;49.960;8.018;2023-09-18T03:00:12;21.60;99.90
6988;DHT22;3534;49.960;8.018;2023-09-18T03:02:38;21.60;99.90
6988;DHT22;3534;49.960;8.018;2023-09-18T03:05:05;21.60;99.90
6988;DHT22;3534;49.960;8.018;2023-09-18T03:07:35;21.60;99.90
6988;DHT22;3534;49.960;8.018;2023-09-18T03:10:03;21.50;99.90
6988;DHT22;3534;49.960;8.018;2023-09-18T03:12:30;21.50;99.90
6988;DHT22;3534;49.960;8.018;2023-09-18T03:14:57;21.50;99.90
6988;DHT22;3534;49.960;8.018;2023-09-18T03:17:23;21.50;99.90
6988;DHT22;3534;49.960;8.018;2023-09-18T03:19:50;21.50;99.90
6988;DHT22;3534;49.960;8.018;2023-09-18T03:22:17;21.50;99.90
6988;DHT22;3534;49.960;8.018;2023-09-18T03:24:45;21.50;99.90
6988;DHT22;3534;49.960;8.018;2023-09-18T03:27:11;21.50;99.90
6988;DHT22;3534;49.960;8.018;2023-09-18T03:29:38;21.50;99.90
6988;DHT22;3534;49.960;8.018;2023-09-18T03:32:05;21.40;99.90
6988;DHT22;3534;49.960;8.018;2023-09-18T03:34:32;21.40;99.90
6988;DHT22;3534;49.960;8.018;2023-09-18T03:36:58;21.40;99.90
6988;DHT22;3534;49.960;8.018;2023-09-18T03:39:25;21.40;99.90
6988;DHT22;3534;49.960;8.018;2023-09-18T03:41:53;21.40;99.90
6988;DHT22;3534;49.960;8.018;2023-09-18T03:44:20;21.40;99.90
6988;DHT22;3534;49.960;8.018;2023-09-18T03:46:46;21.40;99.90
6988;DHT22;3534;49.960;8.018;2023-09-18T03:49:13;21.40;99.90
6988;DHT22;3534;49.960;8.018;2023-09-18T03:51:40;21.30;99.90
6988;DHT22;3534;49.960;8.018;2023-09-18T03:54:06;21.30;99.90
6988;DHT22;3534;49.960;8.018;2023-09-18T03:56:33;21.30;99.90
6988;DHT22;3534;49.960;8.018;2023-09-18T03:59:01;21.30;99.90
6988;DHT22;3534;49.960;8.018;2023-09-18T04:01:28;21.30;99.90
6988;DHT22;3534;49.960;8.018;2023-09-18T04:03:55;21.30;99.90
6988;DHT22;3534;49.960;8.018;2023-09-18T04:06:22;21.30;99.90
6988;DHT22;3534;49.960;8.018;2023-09-18T04:08:50;21.30;99.90
6988;DHT22;3534;49.960;8.018;2023-09-18T04:11:16;21.30;99.90
6988;DHT22;3534;49.960;8.018;2023-09-18T04:13:45;21.30;99.90
6988;DHT22;3534;49.960;8.018;2023-09-18T04:16:13;21.30;99.90
6988;DHT22;3534;49.960;8.018;2023-09-18T04:18:42;21.30;99.90
6988;DHT22;3534;49.960;8.018;2023-09-18T04:21:09;21.30;99.90
6988;DHT22;3534;49.960;8.018;2023-09-18T04:23:36;21.30;99.90
6988;DHT22;3534;49.960;8.018;2023-09-18T04:26:03;21.30;99.90
6988;DHT22;3534;49.960;8.018;2023-09-18T04:28:29;21.30;99.90
6988;DHT22;3534;49.960;8.018;2023-09-18T04:30:56;21.20;99.90
6988;DHT22;3534;49.960;8.018;2023-09-18T04:33:24;21.20;99.90
6988;DHT22;3534;49.960;8.018;2023-09-18T04:35:53;21.20;99.90
6988;DHT22;3534;49.960;8.018;2023-09-18T04:38:20;21.30;99.90
6988;DHT22;3534;49.960;8.018;2023-09-18T04:40:47;21.20;99.90
6988;DHT22;3534;49.960;8.018;2023-09-18T04:43:13;21.20;99.90
6988;DHT22;3534;49.960;8.018;2023-09-18T04:45:40;21.20;99.90
6988;DHT22;3534;49.960;8.018;2023-09-18T04:48:08;21.20;99.90
6988;DHT22;3534;49.960;8.018;2023-09-18T04:50:36;21.20;99.90
6988;DHT22;3534;49.960;8.018;2023-09-18T04:53:03;21.20;99.90
6988;DHT22;3534;49.960;8.018;2023-09-18T04:55:29;21.20;99.90
6988;DHT22;3534;49.960;8.018;2023-09-18T04:57:56;21.20;99.90
6988;DHT22;3534;49.960;8.018;2023-09-18T05:00:24;21.20;99.90
6988;DHT22;3534;49.960;8.018;2023-09-18T05:02:52;21.20;99.90
6988;DHT22;3534;49.960;8.018;2023-09-18T05:05:18;21.20;99.90
6988;DHT22;3534;49.960;8.018;2023-09-18T05:07:46;21.20;99.90
6988;DHT22;3534;49.960;8.018;2023-09-18T05:10:13;21.20;99.90
6988;DHT22;3534;49.960;8.018;2023-09-18T05:12:40;21.30;99.90
6988;DHT22;3534;49.960;8.018;2023-09-18T05:15:08;21.20;99.90
6988;DHT22;3534;49.960;8.018;2023-09-18T05:17:42;21.20;99.90
6988;DHT22;3534;49.960;8.018;2023-09-18T05:20:10;21.20;99.90
6988;DHT22;3534;49.960;8.018;2023-09-18T05:22:39;21.20;99.90
6988;DHT22;3534;49.960;8.018;2023-09-18T05:25:07;21.20;99.90
6988;DHT22;3534;49.960;8.018;2023-09-18T05:27:35;21.20;99.90
6988;DHT22;3534;49.960;8.018;2023-09-18T05:30:10;21.20;99.90
6988;DHT22;3534;49.960;8.018;2023-09-18T05:32:37;21.10;99.90
6988;DHT22;3534;49.960;8.018;2023-09-18T05:35:04;21.10;99.90
6988;DHT22;3534;49.960;8.018;2023-09-18T05:37:31;21.00;99.90
6988;DHT22;3534;49.960;8.018;2023-09-18T05:39:58;20.90;99.90
6988;DHT22;3534;49.960;8.018;2023-09-18T05:42:27;20.80;99.90
6988;DHT22;3534;49.960;8.018;2023-09-18T05:44:54;20.80;99.90
6988;DHT22;3534;49.960;8.018;2023-09-18T05:47:21;20.80;99.90
6988;DHT22;3534;49.960;8.018;2023-09-18T05:49:49;20.80;99.90
6988;DHT22;3534;49.960;8.018;2023-09-18T05:52:15;20.80;99.90
6988;DHT22;3534;49.960;8.018;2023-09-18T05:54:42;20.80;99.90
6988;DHT22;3534;49.960;8.018;2023-09-18T05:57:09;20.80;99.90
6988;DHT22;3534;49.960;8.018;2023-09-18T05:59:37;20.60;99.90
6988;DHT22;3534;49.960;8.018;2023-09-18T06:02:05;20.50;99.90
6988;DHT22;3534;49.960;8.018;2023-09-18T06:04:32;20.50;99.90
6988;DHT22;3534;49.960;8.018;2023-09-18T06:07:02;20.40;99.90
6988;DHT22;3534;49.960;8.018;2023-09-18T06:09:29;20.40;99.90
6988;DHT22;3534;49.960;8.018;2023-09-18T06:11:56;20.40;99.90
6988;DHT22;3534;49.960;8.018;2023-09-18T06:14:22;20.50;99.90
6988;DHT22;3534;49.960;8.018;2023-09-18T06:16:50;20.60;99.90
6988;DHT22;3534;49.960;8.018;2023-09-18T06:19:17;20.60;99.90
6988;DHT22;3534;49.960;8.018;2023-09-18T06:21:44;20.70;99.90
6988;DHT22;3534;49.960;8.018;2023-09-18T06:24:10;20.70;99.90
6988;DHT22;3534;49.960;8.018;2023-09-18T06:26:37;20.70;99.90
6988;DHT22;3534;49.960;8.018;2023-09-18T06:29:04;20.80;99.90
6988;DHT22;3534;49.960;8.018;2023-09-18T06:31:31;20.70;99.90
6988;DHT22;3534;49.960;8.018;2023-09-18T06:33:59;20.70;99.90
6988;DHT22;3534;49.960;8.018;2023-09-18T06:36:25;20.70;99.90
6988;DHT22;3534;49.960;8.018;2023-09-18T06:38:52;20.80;99.90
6988;DHT22;3534;49.960;8.018;2023-09-18T06:41:19;20.80;99.90
6988;DHT22;3534;49.960;8.018;2023-09-18T06:43:45;20.90;99.90
6988;DHT22;3534;49.960;8.018;2023-09-18T06:46:12;20.90;99.90
6988;DHT22;3534;49.960;8.018;2023-09-18T06:48:39;20.90;99.90
6988;DHT22;3534;49.960;8.018;2023-09-18T06:51:07;20.90;99.90
6988;DHT22;3534;49.960;8.018;2023-09-18T06:53:33;20.90;99.90
6988;DHT22;3534;49.960;8.018;2023-09-18T06:56:00;21.00;99.90
6988;DHT22;3534;49.960;8.018;2023-09-18T06:58:27;21.00;99.90
6988;DHT22;3534;49.960;8.018;2023-09-18T07:00:54;21.10;99.90
6988;DHT22;3534;49.960;8.018;2023-09-18T07:03:23;21.10;99.90
6988;DHT22;3534;49.960;8.018;2023-09-18T07:05:50;21.20;99.90
6988;DHT22;3534;49.960;8.018;2023-09-18T07:08:18;21.20;99.90
6988;DHT22;3534;49.960;8.018;2023-09-18T07:13:16;21.30;99.90
6988;DHT22;3534;49.960;8.018;2023-09-18T07:15:43;21.40;99.90
6988;DHT22;3534;49.960;8.018;2023-09-18T07:18:09;21.40;99.90
6988;DHT22;3534;49.960;8.018;2023-09-18T07:20:39;21.40;99.90
6988;DHT22;3534;49.960;8.018;2023-09-18T07:23:06;21.40;99.90
6988;DHT22;3534;49.960;8.018;2023-09-18T07:25:35;21.40;99.90
6988;DHT22;3534;49.960;8.018;2023-09-18T07:28:05;21.40;99.90
6988;DHT22;3534;49.960;8.018;2023-09-18T07:30:33;21.50;99.90
6988;DHT22;3534;49.960;8.018;2023-09-18T07:32:59;21.40;99.90
6988;DHT22;3534;49.960;8.018;2023-09-18T07:35:26;21.50;99.90
6988;DHT22;3534;49.960;8.018;2023-09-18T07:37:53;21.50;99.90
6988;DHT22;3534;49.960;8.018;2023-09-18T07:40:19;21.50;99.90
6988;DHT22;3534;49.960;8.018;2023-09-18T07:42:48;21.50;99.90
6988;DHT22;3534;49.960;8.018;2023-09-18T07:45:15;21.50;99.90
6988;DHT22;3534;49.960;8.018;2023-09-18T07:47:43;21.60;99.90
6988;DHT22;3534;49.960;8.018;2023-09-18T07:50:10;21.60;99.90
6988;DHT22;3534;49.960;8.018;2023-09-18T07:52:36;21.60;99.90
6988;DHT22;3534;49.960;8.018;2023-09-18T07:55:04;21.60;99.90
6988;DHT22;3534;49.960;8.018;2023-09-18T07:57:30;21.60;99.90
6988;DHT22;3534;49.960;8.018;2023-09-18T08:00:01;21.60;99.90
6988;DHT22;3534;49.960;8.018;2023-09-18T08:02:33;21.70;99.90
6988;DHT22;3534;49.960;8.018;2023-09-18T08:05:00;21.70;99.90
6988;DHT22;3534;49.960;8.018;2023-09-18T08:07:27;21.70;99.90
6988;DHT22;3534;49.960;8.018;2023-09-18T08:09:54;21.70;99.90
6988;DHT22;3534;49.960;8.018;2023-09-18T08:12:21;21.70;99.90
6988;DHT22;3534;49.960;8.018;2023-09-18T08:14:48;21.70;99.90
6988;DHT22;3534;49.960;8.018;2023-09-18T08:17:16;21.70;99.90
6988;DHT22;3534;49.960;8.018;2023-09-18T08:19:43;21.80;99.90
6988;DHT22;3534;49.960;8.018;2023-09-18T08:22:10;21.80;99.90
6988;DHT22;3534;49.960;8.018;2023-09-18T08:24:40;21.80;99.90
6988;DHT22;3534;49.960;8.018;2023-09-18T08:27:07;21.90;99.90
6988;DHT22;3534;49.960;8.018;2023-09-18T08:29:34;21.90;99.90
6988;DHT22;3534;49.960;8.018;2023-09-18T08:32:01;21.90;99.90
6988;DHT22;3534;49.960;8.018;2023-09-18T08:34:29;21.90;99.90
6988;DHT22;3534;49.960;8.018;2023-09-18T08:36:55;21.90;99.90
6988;DHT22;3534;49.960;8.018;2023-09-18T08:39:22;21.90;99.90
6988;DHT22;3534;49.960;8.018;2023-09-18T08:41:51;21.80;99.90
6988;DHT22;3534;49.960;8.018;2023-09-18T08:44:22;21.90;99.90
6988;DHT22;3534;49.960;8.018;2023-09-18T08:46:53;21.90;99.90
6988;DHT22;3534;49.960;8.018;2023-09-18T08:49:22;21.90;99.90
6988;DHT22;3534;49.960;8.018;2023-09-18T08:51:51;21.90;99.90
6988;DHT22;3534;49.960;8.018;2023-09-18T08:54:20;21.90;99.90
6988;DHT22;3534;49.960;8.018;2023-09-18T08:56:47;21.90;99.90
6988;DHT22;3534;49.960;8.018;2023-09-18T08:59:14;21.90;99.90
6988;DHT22;3534;49.960;8.018;2023-09-18T09:01:41;21.90;99.90
6988;DHT22;3534;49.960;8.018;2023-09-18T09:04:08;21.80;99.90
6988;DHT22;3534;49.960;8.018;2023-09-18T09:06:34;21.80;99.90
6988;DHT22;3534;49.960;8.018;2023-09-18T09:09:03;21.90;99.90
6988;DHT22;3534;49.960;8.018;2023-09-18T09:11:30;21.90;99.90
6988;DHT22;3534;49.960;8.018;2023-09-18T09:14:09;21.90;99.90
6988;DHT22;3534;49.960;8.018;2023-09-18T09:16:38;21.90;99.90
6988;DHT22;3534;49.960;8.018;2023-09-18T09:19:05;21.90;99.90
6988;DHT22;3534;49.960;8.018;2023-09-18T09:21:39;21.90;99.90
6988;DHT22;3534;49.960;8.018;2023-09-18T09:24:07;22.00;99.90
6988;DHT22;3534;49.960;8.018;2023-09-18T09:26:34;22.00;99.90
6988;DHT22;3534;49.960;8.018;2023-09-18T09:29:14;21.90;99.90
6988;DHT22;3534;49.960;8.018;2023-09-18T09:31:43;21.90;99.90
6988;DHT22;3534;49.960;8.018;2023-09-18T09:34:10;21.90;99.90
6988;DHT22;3534;49.960;8.018;2023-09-18T09:36:39;21.90;99.90
6988;DHT22;3534;49.960;8.018;2023-09-18T09:39:18;22.00;99.90
6988;DHT22;3534;49.960;8.018;2023-09-18T09:41:47;21.90;99.90
6988;DHT22;3534;49.960;8.018;2023-09-18T09:44:16;22.00;99.90
6988;DHT22;3534;49.960;8.018;2023-09-18T09:46:46;22.00;99.90
6988;DHT22;3534;49.960;8.018;2023-09-18T09:49:12;22.00;99.90
6988;DHT22;3534;49.960;8.018;2023-09-18T09:51:41;22.00;99.90
6988;DHT22;3534;49.960;8.018;2023-09-18T09:54:09;22.00;99.90
6988;DHT22;3534;49.960;8.018;2023-09-18T09:56:48;22.10;99.90
6988;DHT22;3534;49.960;8.018;2023-09-18T09:59:16;22.10;99.90
6988;DHT22;3534;49.960;8.018;2023-09-18T10:01:46;22.10;99.90
6988;DHT22;3534;49.960;8.018;2023-09-18T10:04:15;22.10;99.90
6988;DHT22;3534;49.960;8.018;2023-09-18T10:06:44;22.20;99.90
6988;DHT22;3534;49.960;8.018;2023-09-18T10:09:12;22.20;99.90
6988;DHT22;3534;49.960;8.018;2023-09-18T10:11:41;22.30;99.90
6988;DHT22;3534;49.960;8.018;2023-09-18T10:14:12;22.30;99.90
6988;DHT22;3534;49.960;8.018;2023-09-18T10:16:43;22.30;99.90
6988;DHT22;3534;49.960;8.018;2023-09-18T10:19:20;22.30;99.90
6988;DHT22;3534;49.960;8.018;2023-09-18T10:22:00;22.30;99.90
6988;DHT22;3534;49.960;8.018;2023-09-18T10:24:33;22.40;99.90
6988;DHT22;3534;49.960;8.018;2023-09-18T10:27:03;22.40;99.90
6988;DHT22;3534;49.960;8.018;2023-09-18T10:29:34;22.40;99.90
6988;DHT22;3534;49.960;8.018;2023-09-18T10:32:03;22.50;99.90
6988;DHT22;3534;49.960;8.018;2023-09-18T10:34:30;22.50;99.90
6988;DHT22;3534;49.960;8.018;2023-09-18T10:37:00;22.60;99.90
6988;DHT22;3534;49.960;8.018;2023-09-18T10:39:28;22.60;99.90
6988;DHT22;3534;49.960;8.018;2023-09-18T10:41:56;22.60;99.90
6988;DHT22;3534;49.960;8.018;2023-09-18T10:44:28;22.60;99.90
6988;DHT22;3534;49.960;8.018;2023-09-18T10:46:57;22.70;99.90
6988;DHT22;3534;49.960;8.018;2023-09-18T10:49:24;22.70;99.90
6988;DHT22;3534;49.960;8.018;2023-09-18T10:51:54;22.70;99.90
6988;DHT22;3534;49.960;8.018;2023-09-18T10:54:23;22.70;99.90
6988;DHT22;3534;49.960;8.018;2023-09-18T10:56:50;22.70;99.90
6988;DHT22;3534;49.960;8.018;2023-09-18T10:59:17;22.70;99.90
6988;DHT22;3534;49.960;8.018;2023-09-18T11:01:44;22.80;99.90
6988;DHT22;3534;49.960;8.018;2023-09-18T11:04:13;22.80;99.90
6988;DHT22;3534;49.960;8.018;2023-09-18T11:07:01;22.80;99.90
6988;DHT22;3534;49.960;8.018;2023-09-18T11:09:29;22.80;99.90
6988;DHT22;3534;49.960;8.018;2023-09-18T11:12:03;22.80;99.90
6988;DHT22;3534;49.960;8.018;2023-09-18T11:14:42;22.80;99.90
6988;DHT22;3534;49.960;8.018;2023-09-18T11:17:28;22.80;99.90
6988;DHT22;3534;49.960;8.018;2023-09-18T11:20:03;22.80;99.90
6988;DHT22;3534;49.960;8.018;2023-09-18T11:22:32;22.90;99.90
6988;DHT22;3534;49.960;8.018;2023-09-18T11:25:29;22.80;99.90
6988;DHT22;3534;49.960;8.018;2023-09-18T11:27:56;22.90;99.90
6988;DHT22;3534;49.960;8.018;2023-09-18T11:30:23;23.00;99.90
6988;DHT22;3534;49.960;8.018;2023-09-18T11:32:51;22.90;99.90
6988;DHT22;3534;49.960;8.018;2023-09-18T11:35:19;23.00;99.90
6988;DHT22;3534;49.960;8.018;2023-09-18T11:37:47;23.00;99.90
6988;DHT22;3534;49.960;8.018;2023-09-18T11:40:28;23.10;99.90
6988;DHT22;3534;49.960;8.018;2023-09-18T11:43:20;23.10;99.90
6988;DHT22;3534;49.960;8.018;2023-09-18T11:45:51;23.20;99.90
6988;DHT22;3534;49.960;8.018;2023-09-18T11:48:19;23.20;99.90
6988;DHT22;3534;49.960;8.018;2023-09-18T11:50:48;23.30;99.90
6988;DHT22;3534;49.960;8.018;2023-09-18T11:53:17;23.30;99.90
6988;DHT22;3534;49.960;8.018;2023-09-18T11:55:44;23.40;99.90
6988;DHT22;3534;49.960;8.018;2023-09-18T11:58:11;23.40;99.90
6988;DHT22;3534;49.960;8.018;2023-09-18T12:00:38;23.40;99.90
6988;DHT22;3534;49.960;8.018;2023-09-18T12:03:16;23.50;99.90
6988;DHT22;3534;49.960;8.018;2023-09-18T12:05:55;23.50;99.90
6988;DHT22;3534;49.960;8.018;2023-09-18T12:08:22;23.60;99.90
6988;DHT22;3534;49.960;8.018;2023-09-18T12:10:52;23.60;99.90
6988;DHT22;3534;49.960;8.018;2023-09-18T12:13:18;23.70;99.90
6988;DHT22;3534;49.960;8.018;2023-09-18T12:15:46;23.70;99.90
6988;DHT22;3534;49.960;8.018;2023-09-18T12:18:14;23.70;99.90
6988;DHT22;3534;49.960;8.018;2023-09-18T12:20:48;23.80;99.90
6988;DHT22;3534;49.960;8.018;2023-09-18T12:23:17;23.70;99.90
6988;DHT22;3534;49.960;8.018;2023-09-18T12:25:45;23.70;99.90
6988;DHT22;3534;49.960;8.018;2023-09-18T12:28:13;23.70;99.90
6988;DHT22;3534;49.960;8.018;2023-09-18T12:30:42;23.70;99.90
6988;DHT22;3534;49.960;8.018;2023-09-18T12:33:09;23.70;99.90
6988;DHT22;3534;49.960;8.018;2023-09-18T12:35:37;23.70;99.90
6988;DHT22;3534;49.960;8.018;2023-09-18T12:38:13;23.70;99.90
6988;DHT22;3534;49.960;8.018;2023-09-18T12:40:41;23.80;99.90
6988;DHT22;3534;49.960;8.018;2023-09-18T12:43:10;23.70;99.90
6988;DHT22;3534;49.960;8.018;2023-09-18T12:45:38;23.70;99.90
6988;DHT22;3534;49.960;8.018;2023-09-18T12:48:06;23.80;99.90
6988;DHT22;3534;49.960;8.018;2023-09-18T12:50:33;23.90;99.90
6988;DHT22;3534;49.960;8.018;2023-09-18T12:53:07;24.10;99.90
6988;DHT22;3534;49.960;8.018;2023-09-18T12:55:34;24.30;99.90
6988;DHT22;3534;49.960;8.018;2023-09-18T12:58:03;24.30;99.90
6988;DHT22;3534;49.960;8.018;2023-09-18T13:00:33;24.40;99.90
6988;DHT22;3534;49.960;8.018;2023-09-18T13:03:00;24.40;99.90
6988;DHT22;3534;49.960;8.018;2023-09-18T13:05:30;24.40;99.90
6988;DHT22;3534;49.960;8.018;2023-09-18T13:08:02;24.50;99.90
6988;DHT22;3534;49.960;8.018;2023-09-18T13:10:29;24.50;99.90
6988;DHT22;3534;49.960;8.018;2023-09-18T13:12:56;24.50;99.90
6988;DHT22;3534;49.960;8.018;2023-09-18T13:15:26;24.50;99.90
6988;DHT22;3534;49.960;8.018;2023-09-18T13:17:54;24.50;99.90
6988;DHT22;3534;49.960;8.018;2023-09-18T13:20:22;24.50;99.90
6988;DHT22;3534;49.960;8.018;2023-09-18T13:22:51;24.40;99.90
6988;DHT22;3534;49.960;8.018;2023-09-18T13:25:21;24.50;99.90
6988;DHT22;3534;49.960;8.018;2023-09-18T13:27:48;24.50;99.90
6988;DHT22;3534;49.960;8.018;2023-09-18T13:30:16;24.50;99.90
6988;DHT22;3534;49.960;8.018;2023-09-18T13:32:45;24.60;99.90
6988;DHT22;3534;49.960;8.018;2023-09-18T13:35:14;24.70;99.90
6988;DHT22;3534;49.960;8.018;2023-09-18T13:37:41;24.90;99.90
6988;DHT22;3534;49.960;8.018;2023-09-18T13:40:09;25.00;99.90
6988;DHT22;3534;49.960;8.018;2023-09-18T13:42:36;25.10;99.90
6988;DHT22;3534;49.960;8.018;2023-09-18T13:45:04;25.10;99.90
6988;DHT22;3534;49.960;8.018;2023-09-18T13:47:32;25.20;99.90
6988;DHT22;3534;49.960;8.018;2023-09-18T13:50:00;25.50;99.90
6988;DHT22;3534;49.960;8.018;2023-09-18T13:52:28;25.80;99.90
6988;DHT22;3534;49.960;8.018;2023-09-18T13:54:55;26.20;99.90
6988;DHT22;3534;49.960;8.018;2023-09-18T13:57:22;26.50;99.90
6988;DHT22;3534;49.960;8.018;2023-09-18T13:59:50;26.70;99.90
6988;DHT22;3534;49.960;8.018;2023-09-18T14:02:17;26.70;99.90
6988;DHT22;3534;49.960;8.018;2023-09-18T14:04:45;26.90;99.90
6988;DHT22;3534;49.960;8.018;2023-09-18T14:07:13;27.00;99.90
6988;DHT22;3534;49.960;8.018;2023-09-18T14:09:39;27.00;99.90
6988;DHT22;3534;49.960;8.018;2023-09-18T14:12:07;27.10;99.90
6988;DHT22;3534;49.960;8.018;2023-09-18T14:14:34;27.30;99.90
6988;DHT22;3534;49.960;8.018;2023-09-18T14:17:01;27.60;99.90
6988;DHT22;3534;49.960;8.018;2023-09-18T14:19:27;27.80;99.90
6988;DHT22;3534;49.960;8.018;2023-09-18T14:21:54;28.00;99.90
6988;DHT22;3534;49.960;8.018;2023-09-18T14:24:22;28.10;99.90
6988;DHT22;3534;49.960;8.018;2023-09-18T14:26:51;28.00;99.90
6988;DHT22;3534;49.960;8.018;2023-09-18T14:29:18;28.00;99.90
6988;DHT22;3534;49.960;8.018;2023-09-18T14:31:44;27.80;99.90
6988;DHT22;3534;49.960;8.018;2023-09-18T14:34:11;27.60;99.90
6988;DHT22;3534;49.960;8.018;2023-09-18T14:36:38;27.50;99.90
6988;DHT22;3534;49.960;8.018;2023-09-18T14:39:05;27.40;99.90
6988;DHT22;3534;49.960;8.018;2023-09-18T14:41:35;27.20;99.90
6988;DHT22;3534;49.960;8.018;2023-09-18T14:44:02;27.10;99.90
6988;DHT22;3534;49.960;8.018;2023-09-18T14:46:29;27.10;99.90
6988;DHT22;3534;49.960;8.018;2023-09-18T14:48:56;27.10;99.90
6988;DHT22;3534;49.960;8.018;2023-09-18T14:51:23;27.00;99.90
6988;DHT22;3534;49.960;8.018;2023-09-18T14:53:50;27.00;99.90
6988;DHT22;3534;49.960;8.018;2023-09-18T14:56:17;27.20;99.90
6988;DHT22;3534;49.960;8.018;2023-09-18T14:58:45;27.50;99.90
6988;DHT22;3534;49.960;8.018;2023-09-18T15:01:11;27.90;99.90
6988;DHT22;3534;49.960;8.018;2023-09-18T15:03:40;28.40;99.90
6988;DHT22;3534;49.960;8.018;2023-09-18T15:06:07;28.70;99.90
6988;DHT22;3534;49.960;8.018;2023-09-18T15:08:34;28.90;99.90
6988;DHT22;3534;49.960;8.018;2023-09-18T15:11:00;29.20;99.90
6988;DHT22;3534;49.960;8.018;2023-09-18T15:13:28;29.40;99.90
6988;DHT22;3534;49.960;8.018;2023-09-18T15:15:56;29.50;99.90
6988;DHT22;3534;49.960;8.018;2023-09-18T15:18:22;29.60;99.90
6988;DHT22;3534;49.960;8.018;2023-09-18T15:20:49;29.60;99.90
6988;DHT22;3534;49.960;8.018;2023-09-18T15:23:19;29.50;99.90
6988;DHT22;3534;49.960;8.018;2023-09-18T15:25:48;29.40;99.90
6988;DHT22;3534;49.960;8.018;2023-09-18T15:28:15;29.60;99.90
6988;DHT22;3534;49.960;8.018;2023-09-18T15:30:42;29.80;99.90
6988;DHT22;3534;49.960;8.018;2023-09-18T15:33:10;30.00;99.90
6988;DHT22;3534;49.960;8.018;2023-09-18T15:35:38;30.00;99.90
6988;DHT22;3534;49.960;8.018;2023-09-18T15:38:05;30.20;99.90
6988;DHT22;3534;49.960;8.018;2023-09-18T15:40:33;30.20;99.90
6988;DHT22;3534;49.960;8.018;2023-09-18T15:43:00;30.00;99.90
6988;DHT22;3534;49.960;8.018;2023-09-18T15:45:26;29.80;99.90
6988;DHT22;3534;49.960;8.018;2023-09-18T15:47:53;29.40;99.90
6988;DHT22;3534;49.960;8.018;2023-09-18T15:50:22;29.10;99.90
6988;DHT22;3534;49.960;8.018;2023-09-18T15:52:49;28.80;99.90
6988;DHT22;3534;49.960;8.018;2023-09-18T15:55:16;28.60;99.90
6988;DHT22;3534;49.960;8.018;2023-09-18T15:57:43;28.30;99.90
6988;DHT22;3534;49.960;8.018;2023-09-18T16:00:11;28.00;99.90
6988;DHT22;3534;49.960;8.018;2023-09-18T16:02:39;27.70;99.90
6988;DHT22;3534;49.960;8.018;2023-09-18T16:05:06;27.50;99.90
6988;DHT22;3534;49.960;8.018;2023-09-18T16:07:35;27.30;99.90
6988;DHT22;3534;49.960;8.018;2023-09-18T16:10:03;27.10;99.90